sensor_id;sensor_type;location;lat;lon;timestamp;P1;durP1;ratioP1;P2;durP2;ratioP2
51556;SDS011;38766;53.194;5.532;2024-01-30T00:01:25;29.92;;;19.67;;
51556;SDS011;38766;53.194;5.532;2024-01-30T00:03:50;34.58;;;21.02;;
51556;SDS011;38766;53.194;5.532;2024-01-30T00:06:18;34.92;;;21.88;;
51556;SDS011;38766;53.194;5.532;2024-01-30T00:08:46;35.25;;;21.45;;
51556;SDS011;38766;53.194;5.532;2024-01-30T00:11:13;32.10;;;20.63;;
51556;SDS011;38766;53.194;5.532;2024-01-30T00:13:39;32.95;;;21.02;;
51556;SDS011;38766;53.194;5.532;2024-01-30T00:16:05;35.05;;;20.63;;
51556;SDS011;38766;53.194;5.532;2024-01-30T00:18:31;32.38;;;20.67;;
51556;SDS011;38766;53.194;5.532;2024-01-30T00:20:57;34.13;;;21.10;;
51556;SDS011;38766;53.194;5.532;2024-01-30T00:23:22;33.35;;;21.40;;
51556;SDS011;38766;53.194;5.532;2024-01-30T00:25:48;37.50;;;22.13;;
51556;SDS011;38766;53.194;5.532;2024-01-30T00:28:14;30.45;;;21.30;;
51556;SDS011;38766;53.194;5.532;2024-01-30T00:30:39;31.98;;;20.75;;
51556;SDS011;38766;53.194;5.532;2024-01-30T00:33:05;33.50;;;21.85;;
51556;SDS011;38766;53.194;5.532;2024-01-30T00:35:30;32.88;;;20.60;;
51556;SDS011;38766;53.194;5.532;2024-01-30T00:37:56;34.35;;;21.42;;
51556;SDS011;38766;53.194;5.532;2024-01-30T00:40:22;36.10;;;22.60;;
51556;SDS011;38766;53.194;5.532;2024-01-30T00:42:48;39.13;;;22.58;;
51556;SDS011;38766;53.194;5.532;2024-01-30T00:45:14;41.03;;;22.05;;
51556;SDS011;38766;53.194;5.532;2024-01-30T00:47:40;35.00;;;22.40;;
51556;SDS011;38766;53.194;5.532;2024-01-30T00:50:06;34.33;;;22.48;;
51556;SDS011;38766;53.194;5.532;2024-01-30T00:52:32;33.88;;;21.50;;
51556;SDS011;38766;53.194;5.532;2024-01-30T00:54:58;35.33;;;23.17;;
51556;SDS011;38766;53.194;5.532;2024-01-30T00:57:27;34.00;;;22.88;;
51556;SDS011;38766;53.194;5.532;2024-01-30T00:59:53;32.85;;;21.58;;
51556;SDS011;38766;53.194;5.532;2024-01-30T01:02:19;32.78;;;22.55;;
51556;SDS011;38766;53.194;5.532;2024-01-30T01:04:44;37.42;;;23.42;;
51556;SDS011;38766;53.194;5.532;2024-01-30T01:07:10;40.95;;;22.77;;
51556;SDS011;38766;53.194;5.532;2024-01-30T01:09:36;35.67;;;22.40;;
51556;SDS011;38766;53.194;5.532;2024-01-30T01:12:02;33.90;;;22.55;;
51556;SDS011;38766;53.194;5.532;2024-01-30T01:14:28;42.50;;;24.30;;
51556;SDS011;38766;53.194;5.532;2024-01-30T01:16:54;42.45;;;23.42;;
51556;SDS011;38766;53.194;5.532;2024-01-30T01:19:19;35.95;;;22.77;;
51556;SDS011;38766;53.194;5.532;2024-01-30T01:21:45;37.97;;;23.45;;
51556;SDS011;38766;53.194;5.532;2024-01-30T01:24:11;39.08;;;23.85;;
51556;SDS011;38766;53.194;5.532;2024-01-30T01:26:36;37.30;;;23.20;;
51556;SDS011;38766;53.194;5.532;2024-01-30T01:29:02;39.08;;;23.70;;
51556;SDS011;38766;53.194;5.532;2024-01-30T01:31:34;39.33;;;23.05;;
51556;SDS011;38766;53.194;5.532;2024-01-30T01:34:04;35.97;;;24.15;;
51556;SDS011;38766;53.194;5.532;2024-01-30T01:36:31;39.10;;;22.85;;
51556;SDS011;38766;53.194;5.532;2024-01-30T01:38:56;39.90;;;24.58;;
51556;SDS011;38766;53.194;5.532;2024-01-30T01:41:22;35.28;;;22.25;;
51556;SDS011;38766;53.194;5.532;2024-01-30T01:43:47;37.92;;;23.27;;
51556;SDS011;38766;53.194;5.532;2024-01-30T01:46:13;35.40;;;22.48;;
51556;SDS011;38766;53.194;5.532;2024-01-30T01:48:39;36.95;;;23.50;;
51556;SDS011;38766;53.194;5.532;2024-01-30T01:51:05;38.08;;;23.70;;
51556;SDS011;38766;53.194;5.532;2024-01-30T01:53:31;34.67;;;23.33;;
51556;SDS011;38766;53.194;5.532;2024-01-30T01:55:57;37.85;;;24.10;;
51556;SDS011;38766;53.194;5.532;2024-01-30T01:58:23;36.25;;;23.63;;
51556;SDS011;38766;53.194;5.532;2024-01-30T02:00:53;36.05;;;22.48;;
51556;SDS011;38766;53.194;5.532;2024-01-30T02:03:19;38.90;;;24.83;;
51556;SDS011;38766;53.194;5.532;2024-01-30T02:05:49;38.00;;;23.70;;
51556;SDS011;38766;53.194;5.532;2024-01-30T02:08:16;40.85;;;25.60;;
51556;SDS011;38766;53.194;5.532;2024-01-30T02:10:41;35.30;;;22.85;;
51556;SDS011;38766;53.194;5.532;2024-01-30T02:13:07;39.83;;;24.08;;
51556;SDS011;38766;53.194;5.532;2024-01-30T02:15:33;39.13;;;24.13;;
51556;SDS011;38766;53.194;5.532;2024-01-30T02:17:58;35.45;;;23.00;;
51556;SDS011;38766;53.194;5.532;2024-01-30T02:20:24;33.45;;;22.20;;
51556;SDS011;38766;53.194;5.532;2024-01-30T02:22:52;40.40;;;24.17;;
51556;SDS011;38766;53.194;5.532;2024-01-30T02:25:29;32.65;;;22.55;;
51556;SDS011;38766;53.194;5.532;2024-01-30T02:28:04;33.90;;;22.30;;
51556;SDS011;38766;53.194;5.532;2024-01-30T02:30:29;36.00;;;23.27;;
51556;SDS011;38766;53.194;5.532;2024-01-30T02:32:55;31.60;;;20.95;;
51556;SDS011;38766;53.194;5.532;2024-01-30T02:35:21;34.42;;;23.33;;
51556;SDS011;38766;53.194;5.532;2024-01-30T02:37:46;31.80;;;21.83;;
51556;SDS011;38766;53.194;5.532;2024-01-30T02:40:12;33.35;;;22.73;;
51556;SDS011;38766;53.194;5.532;2024-01-30T02:42:38;37.08;;;22.55;;
51556;SDS011;38766;53.194;5.532;2024-01-30T02:45:04;29.33;;;20.40;;
51556;SDS011;38766;53.194;5.532;2024-01-30T02:47:30;33.03;;;21.50;;
51556;SDS011;38766;53.194;5.532;2024-01-30T02:49:56;34.50;;;21.90;;
51556;SDS011;38766;53.194;5.532;2024-01-30T02:52:21;30.38;;;21.20;;
51556;SDS011;38766;53.194;5.532;2024-01-30T02:54:47;31.48;;;21.42;;
51556;SDS011;38766;53.194;5.532;2024-01-30T02:57:13;29.98;;;19.67;;
51556;SDS011;38766;53.194;5.532;2024-01-30T02:59:38;34.20;;;20.88;;
51556;SDS011;38766;53.194;5.532;2024-01-30T03:02:04;33.38;;;21.08;;
51556;SDS011;38766;53.194;5.532;2024-01-30T03:04:29;32.08;;;20.33;;
51556;SDS011;38766;53.194;5.532;2024-01-30T03:06:55;30.75;;;20.65;;
51556;SDS011;38766;53.194;5.532;2024-01-30T03:09:21;31.73;;;19.05;;
51556;SDS011;38766;53.194;5.532;2024-01-30T03:11:46;31.92;;;20.40;;
51556;SDS011;38766;53.194;5.532;2024-01-30T03:14:12;29.90;;;19.10;;
51556;SDS011;38766;53.194;5.532;2024-01-30T03:16:37;27.92;;;19.08;;
51556;SDS011;38766;53.194;5.532;2024-01-30T03:19:05;31.95;;;20.45;;
51556;SDS011;38766;53.194;5.532;2024-01-30T03:21:32;32.00;;;19.42;;
51556;SDS011;38766;53.194;5.532;2024-01-30T03:23:58;29.50;;;20.17;;
51556;SDS011;38766;53.194;5.532;2024-01-30T03:26:24;31.83;;;18.38;;
51556;SDS011;38766;53.194;5.532;2024-01-30T03:28:50;32.13;;;19.70;;
51556;SDS011;38766;53.194;5.532;2024-01-30T03:31:15;29.80;;;19.83;;
51556;SDS011;38766;53.194;5.532;2024-01-30T03:33:41;29.70;;;19.52;;
51556;SDS011;38766;53.194;5.532;2024-01-30T03:36:07;27.58;;;18.30;;
51556;SDS011;38766;53.194;5.532;2024-01-30T03:38:33;31.27;;;19.25;;
51556;SDS011;38766;53.194;5.532;2024-01-30T03:40:59;30.15;;;18.77;;
51556;SDS011;38766;53.194;5.532;2024-01-30T03:43:25;30.13;;;18.75;;
51556;SDS011;38766;53.194;5.532;2024-01-30T03:45:51;30.30;;;19.10;;
51556;SDS011;38766;53.194;5.532;2024-01-30T03:48:16;30.60;;;19.98;;
51556;SDS011;38766;53.194;5.532;2024-01-30T03:50:42;26.95;;;17.92;;
51556;SDS011;38766;53.194;5.532;2024-01-30T03:53:07;30.20;;;19.02;;
51556;SDS011;38766;53.194;5.532;2024-01-30T03:55:33;31.65;;;18.45;;
51556;SDS011;38766;53.194;5.532;2024-01-30T03:57:59;30.00;;;18.63;;
51556;SDS011;38766;53.194;5.532;2024-01-30T04:00:24;29.38;;;18.33;;
51556;SDS011;38766;53.194;5.532;2024-01-30T04:02:50;28.17;;;19.33;;
51556;SDS011;38766;53.194;5.532;2024-01-30T04:05:16;29.73;;;18.52;;
51556;SDS011;38766;53.194;5.532;2024-01-30T04:07:42;27.98;;;18.13;;
51556;SDS011;38766;53.194;5.532;2024-01-30T04:10:08;27.08;;;18.88;;
51556;SDS011;38766;53.194;5.532;2024-01-30T04:12:35;27.98;;;18.27;;
51556;SDS011;38766;53.194;5.532;2024-01-30T04:15:01;24.98;;;16.80;;
51556;SDS011;38766;53.194;5.532;2024-01-30T04:17:27;25.15;;;17.50;;
51556;SDS011;38766;53.194;5.532;2024-01-30T04:19:54;25.02;;;16.55;;
51556;SDS011;38766;53.194;5.532;2024-01-30T04:22:20;23.77;;;16.30;;
51556;SDS011;38766;53.194;5.532;2024-01-30T04:24:45;24.83;;;17.20;;
51556;SDS011;38766;53.194;5.532;2024-01-30T04:27:11;24.30;;;17.40;;
51556;SDS011;38766;53.194;5.532;2024-01-30T04:29:37;25.67;;;17.02;;
51556;SDS011;38766;53.194;5.532;2024-01-30T04:32:03;24.25;;;16.45;;
51556;SDS011;38766;53.194;5.532;2024-01-30T04:34:29;25.42;;;16.73;;
51556;SDS011;38766;53.194;5.532;2024-01-30T04:36:55;25.48;;;16.30;;
51556;SDS011;38766;53.194;5.532;2024-01-30T04:39:20;22.10;;;16.38;;
51556;SDS011;38766;53.194;5.532;2024-01-30T04:41:46;22.20;;;15.88;;
51556;SDS011;38766;53.194;5.532;2024-01-30T04:44:11;23.70;;;16.15;;
51556;SDS011;38766;53.194;5.532;2024-01-30T04:46:37;24.67;;;16.13;;
51556;SDS011;38766;53.194;5.532;2024-01-30T04:49:02;24.90;;;15.93;;
51556;SDS011;38766;53.194;5.532;2024-01-30T04:51:28;23.50;;;16.08;;
51556;SDS011;38766;53.194;5.532;2024-01-30T04:53:54;22.48;;;15.32;;
51556;SDS011;38766;53.194;5.532;2024-01-30T04:56:20;24.63;;;16.17;;
51556;SDS011;38766;53.194;5.532;2024-01-30T04:58:46;24.92;;;15.95;;
51556;SDS011;38766;53.194;5.532;2024-01-30T05:01:18;24.40;;;15.63;;
51556;SDS011;38766;53.194;5.532;2024-01-30T05:03:43;26.92;;;16.58;;
51556;SDS011;38766;53.194;5.532;2024-01-30T05:06:09;21.27;;;14.75;;
51556;SDS011;38766;53.194;5.532;2024-01-30T05:08:35;28.02;;;16.73;;
51556;SDS011;38766;53.194;5.532;2024-01-30T05:11:02;30.75;;;17.33;;
51556;SDS011;38766;53.194;5.532;2024-01-30T05:13:30;22.42;;;15.45;;
51556;SDS011;38766;53.194;5.532;2024-01-30T05:15:55;21.98;;;15.75;;
51556;SDS011;38766;53.194;5.532;2024-01-30T05:18:21;23.50;;;15.60;;
51556;SDS011;38766;53.194;5.532;2024-01-30T05:20:47;22.42;;;15.68;;
51556;SDS011;38766;53.194;5.532;2024-01-30T05:23:12;25.25;;;16.65;;
51556;SDS011;38766;53.194;5.532;2024-01-30T05:25:38;22.50;;;15.77;;
51556;SDS011;38766;53.194;5.532;2024-01-30T05:28:03;23.90;;;15.07;;
51556;SDS011;38766;53.194;5.532;2024-01-30T05:30:29;26.48;;;16.33;;
51556;SDS011;38766;53.194;5.532;2024-01-30T05:32:55;25.27;;;15.35;;
51556;SDS011;38766;53.194;5.532;2024-01-30T05:35:20;23.35;;;16.25;;
51556;SDS011;38766;53.194;5.532;2024-01-30T05:37:47;22.85;;;16.00;;
51556;SDS011;38766;53.194;5.532;2024-01-30T05:40:14;22.63;;;14.60;;
51556;SDS011;38766;53.194;5.532;2024-01-30T05:42:40;23.42;;;14.35;;
51556;SDS011;38766;53.194;5.532;2024-01-30T05:45:05;23.15;;;16.23;;
51556;SDS011;38766;53.194;5.532;2024-01-30T05:47:31;25.20;;;15.30;;
51556;SDS011;38766;53.194;5.532;2024-01-30T05:49:57;28.27;;;16.35;;
51556;SDS011;38766;53.194;5.532;2024-01-30T05:52:22;21.35;;;15.13;;
51556;SDS011;38766;53.194;5.532;2024-01-30T05:54:48;22.52;;;15.10;;
51556;SDS011;38766;53.194;5.532;2024-01-30T05:57:13;23.20;;;15.35;;
51556;SDS011;38766;53.194;5.532;2024-01-30T05:59:39;24.10;;;15.15;;
51556;SDS011;38766;53.194;5.532;2024-01-30T06:02:05;21.80;;;16.00;;
51556;SDS011;38766;53.194;5.532;2024-01-30T06:04:30;23.52;;;15.82;;
51556;SDS011;38766;53.194;5.532;2024-01-30T06:06:56;21.10;;;14.88;;
51556;SDS011;38766;53.194;5.532;2024-01-30T06:09:22;23.25;;;15.48;;
51556;SDS011;38766;53.194;5.532;2024-01-30T06:11:47;23.35;;;15.02;;
51556;SDS011;38766;53.194;5.532;2024-01-30T06:14:13;23.48;;;15.90;;
51556;SDS011;38766;53.194;5.532;2024-01-30T06:16:38;20.50;;;15.20;;
51556;SDS011;38766;53.194;5.532;2024-01-30T06:19:04;24.77;;;15.57;;
51556;SDS011;38766;53.194;5.532;2024-01-30T06:21:31;23.27;;;15.50;;
51556;SDS011;38766;53.194;5.532;2024-01-30T06:23:57;23.15;;;15.80;;
51556;SDS011;38766;53.194;5.532;2024-01-30T06:26:23;21.73;;;13.95;;
51556;SDS011;38766;53.194;5.532;2024-01-30T06:28:48;20.98;;;14.23;;
51556;SDS011;38766;53.194;5.532;2024-01-30T06:31:14;22.67;;;15.68;;
51556;SDS011;38766;53.194;5.532;2024-01-30T06:33:39;25.02;;;15.45;;
51556;SDS011;38766;53.194;5.532;2024-01-30T06:36:07;22.73;;;15.55;;
51556;SDS011;38766;53.194;5.532;2024-01-30T06:38:32;21.05;;;14.05;;
51556;SDS011;38766;53.194;5.532;2024-01-30T06:40:58;23.98;;;15.23;;
51556;SDS011;38766;53.194;5.532;2024-01-30T06:43:24;20.08;;;14.82;;
51556;SDS011;38766;53.194;5.532;2024-01-30T06:45:49;22.10;;;14.63;;
51556;SDS011;38766;53.194;5.532;2024-01-30T06:48:16;23.30;;;14.60;;
51556;SDS011;38766;53.194;5.532;2024-01-30T06:50:42;22.83;;;15.07;;
51556;SDS011;38766;53.194;5.532;2024-01-30T06:53:08;24.52;;;14.15;;
51556;SDS011;38766;53.194;5.532;2024-01-30T06:55:33;20.33;;;14.07;;
51556;SDS011;38766;53.194;5.532;2024-01-30T06:57:59;20.05;;;13.80;;
51556;SDS011;38766;53.194;5.532;2024-01-30T07:00:24;21.75;;;15.52;;
51556;SDS011;38766;53.194;5.532;2024-01-30T07:02:50;23.23;;;15.18;;
51556;SDS011;38766;53.194;5.532;2024-01-30T07:05:16;20.92;;;15.23;;
51556;SDS011;38766;53.194;5.532;2024-01-30T07:07:42;17.90;;;13.57;;
51556;SDS011;38766;53.194;5.532;2024-01-30T07:10:08;18.40;;;14.05;;
51556;SDS011;38766;53.194;5.532;2024-01-30T07:12:34;21.80;;;14.55;;
51556;SDS011;38766;53.194;5.532;2024-01-30T07:14:59;20.08;;;14.57;;
51556;SDS011;38766;53.194;5.532;2024-01-30T07:17:25;21.75;;;14.32;;
51556;SDS011;38766;53.194;5.532;2024-01-30T07:19:50;24.85;;;15.80;;
51556;SDS011;38766;53.194;5.532;2024-01-30T07:22:16;23.25;;;15.18;;
51556;SDS011;38766;53.194;5.532;2024-01-30T07:24:42;20.63;;;14.13;;
51556;SDS011;38766;53.194;5.532;2024-01-30T07:27:10;22.67;;;15.23;;
51556;SDS011;38766;53.194;5.532;2024-01-30T07:29:35;23.55;;;15.02;;
51556;SDS011;38766;53.194;5.532;2024-01-30T07:32:01;21.83;;;14.13;;
51556;SDS011;38766;53.194;5.532;2024-01-30T07:34:27;20.48;;;14.85;;
51556;SDS011;38766;53.194;5.532;2024-01-30T07:36:52;20.60;;;14.40;;
51556;SDS011;38766;53.194;5.532;2024-01-30T07:39:18;20.15;;;14.48;;
51556;SDS011;38766;53.194;5.532;2024-01-30T07:41:43;22.50;;;14.73;;
51556;SDS011;38766;53.194;5.532;2024-01-30T07:44:09;23.58;;;15.70;;
51556;SDS011;38766;53.194;5.532;2024-01-30T07:46:34;24.70;;;15.27;;
51556;SDS011;38766;53.194;5.532;2024-01-30T07:49:00;22.88;;;15.10;;
51556;SDS011;38766;53.194;5.532;2024-01-30T07:51:26;20.98;;;14.27;;
51556;SDS011;38766;53.194;5.532;2024-01-30T07:53:54;23.30;;;14.93;;
51556;SDS011;38766;53.194;5.532;2024-01-30T07:56:20;21.77;;;15.07;;
51556;SDS011;38766;53.194;5.532;2024-01-30T07:58:45;22.40;;;14.70;;
51556;SDS011;38766;53.194;5.532;2024-01-30T08:01:11;24.75;;;14.95;;
51556;SDS011;38766;53.194;5.532;2024-01-30T08:03:37;26.88;;;15.20;;
51556;SDS011;38766;53.194;5.532;2024-01-30T08:06:04;22.75;;;14.82;;
51556;SDS011;38766;53.194;5.532;2024-01-30T08:08:31;22.02;;;14.05;;
51556;SDS011;38766;53.194;5.532;2024-01-30T08:10:57;23.92;;;14.80;;
51556;SDS011;38766;53.194;5.532;2024-01-30T08:13:22;21.02;;;14.90;;
51556;SDS011;38766;53.194;5.532;2024-01-30T08:15:48;26.42;;;15.50;;
51556;SDS011;38766;53.194;5.532;2024-01-30T08:18:14;19.65;;;14.15;;
51556;SDS011;38766;53.194;5.532;2024-01-30T08:20:39;17.58;;;13.23;;
51556;SDS011;38766;53.194;5.532;2024-01-30T08:23:05;21.58;;;13.85;;
51556;SDS011;38766;53.194;5.532;2024-01-30T08:25:31;20.38;;;13.80;;
51556;SDS011;38766;53.194;5.532;2024-01-30T08:27:56;23.58;;;13.60;;
51556;SDS011;38766;53.194;5.532;2024-01-30T08:30:22;21.33;;;14.63;;
51556;SDS011;38766;53.194;5.532;2024-01-30T08:32:48;22.85;;;14.80;;
51556;SDS011;38766;53.194;5.532;2024-01-30T08:35:13;26.45;;;14.75;;
51556;SDS011;38766;53.194;5.532;2024-01-30T08:37:41;20.48;;;13.57;;
51556;SDS011;38766;53.194;5.532;2024-01-30T08:40:07;23.83;;;13.43;;
51556;SDS011;38766;53.194;5.532;2024-01-30T08:42:33;24.42;;;14.13;;
51556;SDS011;38766;53.194;5.532;2024-01-30T08:44:59;24.42;;;14.02;;
51556;SDS011;38766;53.194;5.532;2024-01-30T08:47:25;20.25;;;13.75;;
51556;SDS011;38766;53.194;5.532;2024-01-30T08:49:51;21.83;;;13.65;;
51556;SDS011;38766;53.194;5.532;2024-01-30T08:52:17;24.98;;;13.75;;
51556;SDS011;38766;53.194;5.532;2024-01-30T08:54:42;23.55;;;13.52;;
51556;SDS011;38766;53.194;5.532;2024-01-30T08:57:08;22.80;;;13.05;;
51556;SDS011;38766;53.194;5.532;2024-01-30T08:59:36;21.45;;;13.63;;
51556;SDS011;38766;53.194;5.532;2024-01-30T09:02:02;22.98;;;13.90;;
51556;SDS011;38766;53.194;5.532;2024-01-30T09:04:29;24.92;;;13.95;;
51556;SDS011;38766;53.194;5.532;2024-01-30T09:06:54;19.63;;;12.45;;
51556;SDS011;38766;53.194;5.532;2024-01-30T09:09:20;20.48;;;13.13;;
51556;SDS011;38766;53.194;5.532;2024-01-30T09:11:46;26.27;;;13.32;;
51556;SDS011;38766;53.194;5.532;2024-01-30T09:14:11;23.50;;;13.73;;
51556;SDS011;38766;53.194;5.532;2024-01-30T09:16:37;18.23;;;13.13;;
51556;SDS011;38766;53.194;5.532;2024-01-30T09:19:03;23.42;;;12.60;;
51556;SDS011;38766;53.194;5.532;2024-01-30T09:21:29;17.92;;;12.57;;
51556;SDS011;38766;53.194;5.532;2024-01-30T09:24:00;23.98;;;13.10;;
51556;SDS011;38766;53.194;5.532;2024-01-30T09:26:29;21.97;;;13.50;;
51556;SDS011;38766;53.194;5.532;2024-01-30T09:28:54;24.50;;;13.55;;
51556;SDS011;38766;53.194;5.532;2024-01-30T09:31:20;22.25;;;13.45;;
51556;SDS011;38766;53.194;5.532;2024-01-30T09:33:45;21.38;;;12.88;;
51556;SDS011;38766;53.194;5.532;2024-01-30T09:36:13;21.30;;;13.07;;
51556;SDS011;38766;53.194;5.532;2024-01-30T09:38:40;19.92;;;12.85;;
51556;SDS011;38766;53.194;5.532;2024-01-30T09:41:08;24.75;;;13.38;;
51556;SDS011;38766;53.194;5.532;2024-01-30T09:43:38;21.80;;;13.15;;
51556;SDS011;38766;53.194;5.532;2024-01-30T09:46:07;21.80;;;13.07;;
51556;SDS011;38766;53.194;5.532;2024-01-30T09:48:38;19.23;;;12.20;;
51556;SDS011;38766;53.194;5.532;2024-01-30T09:51:06;23.58;;;12.70;;
51556;SDS011;38766;53.194;5.532;2024-01-30T09:53:32;21.50;;;12.25;;
51556;SDS011;38766;53.194;5.532;2024-01-30T09:55:58;27.00;;;12.32;;
51556;SDS011;38766;53.194;5.532;2024-01-30T09:58:25;27.83;;;12.23;;
51556;SDS011;38766;53.194;5.532;2024-01-30T10:00:51;21.30;;;11.32;;
51556;SDS011;38766;53.194;5.532;2024-01-30T10:03:18;26.55;;;11.02;;
51556;SDS011;38766;53.194;5.532;2024-01-30T10:05:45;23.67;;;10.23;;
51556;SDS011;38766;53.194;5.532;2024-01-30T10:08:17;28.08;;;9.27;;
51556;SDS011;38766;53.194;5.532;2024-01-30T10:10:49;23.10;;;8.90;;
51556;SDS011;38766;53.194;5.532;2024-01-30T10:13:15;22.52;;;8.32;;
51556;SDS011;38766;53.194;5.532;2024-01-30T10:15:41;26.88;;;8.23;;
51556;SDS011;38766;53.194;5.532;2024-01-30T10:18:07;23.02;;;7.55;;
51556;SDS011;38766;53.194;5.532;2024-01-30T10:20:35;20.33;;;7.32;;
51556;SDS011;38766;53.194;5.532;2024-01-30T10:23:00;21.73;;;6.18;;
51556;SDS011;38766;53.194;5.532;2024-01-30T10:25:26;20.55;;;6.07;;
51556;SDS011;38766;53.194;5.532;2024-01-30T10:27:55;18.80;;;6.05;;
51556;SDS011;38766;53.194;5.532;2024-01-30T10:30:21;24.10;;;5.82;;
51556;SDS011;38766;53.194;5.532;2024-01-30T10:32:47;15.65;;;5.10;;
51556;SDS011;38766;53.194;5.532;2024-01-30T10:35:13;16.85;;;5.65;;
51556;SDS011;38766;53.194;5.532;2024-01-30T10:37:39;18.55;;;5.80;;
51556;SDS011;38766;53.194;5.532;2024-01-30T10:40:08;14.68;;;4.63;;
51556;SDS011;38766;53.194;5.532;2024-01-30T10:42:37;12.85;;;4.28;;
51556;SDS011;38766;53.194;5.532;2024-01-30T10:45:10;15.10;;;4.20;;
51556;SDS011;38766;53.194;5.532;2024-01-30T10:47:39;21.83;;;4.28;;
51556;SDS011;38766;53.194;5.532;2024-01-30T10:50:07;10.95;;;3.60;;
51556;SDS011;38766;53.194;5.532;2024-01-30T10:52:33;17.77;;;4.45;;
51556;SDS011;38766;53.194;5.532;2024-01-30T10:55:00;11.60;;;3.67;;
51556;SDS011;38766;53.194;5.532;2024-01-30T10:57:26;17.88;;;3.83;;
51556;SDS011;38766;53.194;5.532;2024-01-30T10:59:56;17.35;;;3.90;;
51556;SDS011;38766;53.194;5.532;2024-01-30T11:02:23;12.32;;;3.20;;
51556;SDS011;38766;53.194;5.532;2024-01-30T11:04:50;11.35;;;2.90;;
51556;SDS011;38766;53.194;5.532;2024-01-30T11:07:28;15.48;;;4.28;;
51556;SDS011;38766;53.194;5.532;2024-01-30T11:12:26;13.75;;;3.70;;
51556;SDS011;38766;53.194;5.532;2024-01-30T11:20:29;11.73;;;3.20;;
51556;SDS011;38766;53.194;5.532;2024-01-30T11:23:01;10.48;;;3.17;;
51556;SDS011;38766;53.194;5.532;2024-01-30T11:25:31;13.02;;;2.88;;
51556;SDS011;38766;53.194;5.532;2024-01-30T11:27:57;10.60;;;3.17;;
51556;SDS011;38766;53.194;5.532;2024-01-30T11:30:27;15.02;;;3.10;;
51556;SDS011;38766;53.194;5.532;2024-01-30T11:33:01;14.18;;;2.63;;
51556;SDS011;38766;53.194;5.532;2024-01-30T11:35:30;14.10;;;2.97;;
51556;SDS011;38766;53.194;5.532;2024-01-30T11:38:02;14.10;;;2.55;;
51556;SDS011;38766;53.194;5.532;2024-01-30T11:40:29;9.75;;;2.72;;
51556;SDS011;38766;53.194;5.532;2024-01-30T11:42:56;14.88;;;3.05;;
51556;SDS011;38766;53.194;5.532;2024-01-30T11:45:23;12.48;;;2.85;;
51556;SDS011;38766;53.194;5.532;2024-01-30T11:47:48;14.70;;;3.20;;
51556;SDS011;38766;53.194;5.532;2024-01-30T11:50:14;17.00;;;3.97;;
51556;SDS011;38766;53.194;5.532;2024-01-30T11:52:41;11.60;;;3.08;;
51556;SDS011;38766;53.194;5.532;2024-01-30T11:55:08;9.13;;;2.63;;
51556;SDS011;38766;53.194;5.532;2024-01-30T11:57:34;11.30;;;3.08;;
51556;SDS011;38766;53.194;5.532;2024-01-30T12:00:03;9.65;;;3.33;;
51556;SDS011;38766;53.194;5.532;2024-01-30T12:02:35;10.70;;;2.90;;
51556;SDS011;38766;53.194;5.532;2024-01-30T12:05:07;9.63;;;2.55;;
51556;SDS011;38766;53.194;5.532;2024-01-30T12:07:33;11.82;;;3.53;;
51556;SDS011;38766;53.194;5.532;2024-01-30T12:09:59;18.58;;;3.00;;
51556;SDS011;38766;53.194;5.532;2024-01-30T12:12:25;9.93;;;2.28;;
51556;SDS011;38766;53.194;5.532;2024-01-30T12:14:52;9.57;;;2.10;;
51556;SDS011;38766;53.194;5.532;2024-01-30T12:17:27;9.15;;;2.42;;
51556;SDS011;38766;53.194;5.532;2024-01-30T12:20:09;8.52;;;1.98;;
51556;SDS011;38766;53.194;5.532;2024-01-30T12:22:37;8.30;;;2.17;;
51556;SDS011;38766;53.194;5.532;2024-01-30T12:25:13;10.02;;;2.42;;
51556;SDS011;38766;53.194;5.532;2024-01-30T12:27:45;7.25;;;1.77;;
51556;SDS011;38766;53.194;5.532;2024-01-30T12:30:12;5.95;;;2.40;;
51556;SDS011;38766;53.194;5.532;2024-01-30T12:32:39;7.78;;;2.13;;
51556;SDS011;38766;53.194;5.532;2024-01-30T12:35:16;6.40;;;2.10;;
51556;SDS011;38766;53.194;5.532;2024-01-30T12:37:43;7.80;;;1.90;;
51556;SDS011;38766;53.194;5.532;2024-01-30T12:40:10;6.35;;;2.00;;
51556;SDS011;38766;53.194;5.532;2024-01-30T12:42:38;8.65;;;1.90;;
51556;SDS011;38766;53.194;5.532;2024-01-30T12:45:04;12.35;;;2.30;;
51556;SDS011;38766;53.194;5.532;2024-01-30T12:47:30;10.05;;;2.20;;
51556;SDS011;38766;53.194;5.532;2024-01-30T12:49:56;6.88;;;2.13;;
51556;SDS011;38766;53.194;5.532;2024-01-30T12:52:22;4.82;;;1.88;;
51556;SDS011;38766;53.194;5.532;2024-01-30T12:54:48;6.47;;;2.05;;
51556;SDS011;38766;53.194;5.532;2024-01-30T12:57:14;9.57;;;2.28;;
51556;SDS011;38766;53.194;5.532;2024-01-30T12:59:41;7.35;;;2.15;;
51556;SDS011;38766;53.194;5.532;2024-01-30T13:02:08;9.13;;;2.25;;
51556;SDS011;38766;53.194;5.532;2024-01-30T13:04:34;16.17;;;2.55;;
51556;SDS011;38766;53.194;5.532;2024-01-30T13:07:00;9.05;;;2.28;;
51556;SDS011;38766;53.194;5.532;2024-01-30T13:09:26;9.45;;;2.35;;
51556;SDS011;38766;53.194;5.532;2024-01-30T13:11:52;9.23;;;2.90;;
51556;SDS011;38766;53.194;5.532;2024-01-30T13:14:18;8.63;;;2.38;;
51556;SDS011;38766;53.194;5.532;2024-01-30T13:16:43;7.15;;;3.15;;
51556;SDS011;38766;53.194;5.532;2024-01-30T13:19:09;8.32;;;2.72;;
51556;SDS011;38766;53.194;5.532;2024-01-30T13:21:35;7.30;;;2.45;;
51556;SDS011;38766;53.194;5.532;2024-01-30T13:24:01;7.32;;;2.90;;
51556;SDS011;38766;53.194;5.532;2024-01-30T13:26:26;9.25;;;2.78;;
51556;SDS011;38766;53.194;5.532;2024-01-30T13:28:52;9.13;;;2.28;;
51556;SDS011;38766;53.194;5.532;2024-01-30T13:31:17;6.85;;;2.42;;
51556;SDS011;38766;53.194;5.532;2024-01-30T13:33:44;7.45;;;2.17;;
51556;SDS011;38766;53.194;5.532;2024-01-30T13:36:10;7.13;;;2.33;;
51556;SDS011;38766;53.194;5.532;2024-01-30T13:38:37;6.57;;;2.55;;
51556;SDS011;38766;53.194;5.532;2024-01-30T13:41:03;7.30;;;2.47;;
51556;SDS011;38766;53.194;5.532;2024-01-30T13:43:28;9.18;;;2.95;;
51556;SDS011;38766;53.194;5.532;2024-01-30T13:45:54;10.07;;;2.47;;
51556;SDS011;38766;53.194;5.532;2024-01-30T13:48:20;6.47;;;2.40;;
51556;SDS011;38766;53.194;5.532;2024-01-30T13:50:46;6.13;;;2.45;;
51556;SDS011;38766;53.194;5.532;2024-01-30T13:53:12;5.80;;;2.45;;
51556;SDS011;38766;53.194;5.532;2024-01-30T13:55:38;11.95;;;3.47;;
51556;SDS011;38766;53.194;5.532;2024-01-30T13:58:07;8.32;;;2.55;;
51556;SDS011;38766;53.194;5.532;2024-01-30T14:00:33;6.25;;;2.72;;
51556;SDS011;38766;53.194;5.532;2024-01-30T14:02:58;9.40;;;2.90;;
51556;SDS011;38766;53.194;5.532;2024-01-30T14:05:24;8.68;;;2.70;;
51556;SDS011;38766;53.194;5.532;2024-01-30T14:07:51;8.23;;;2.55;;
51556;SDS011;38766;53.194;5.532;2024-01-30T14:10:17;10.15;;;2.80;;
51556;SDS011;38766;53.194;5.532;2024-01-30T14:12:43;9.77;;;3.05;;
51556;SDS011;38766;53.194;5.532;2024-01-30T14:15:09;7.95;;;3.15;;
51556;SDS011;38766;53.194;5.532;2024-01-30T14:17:36;8.25;;;3.00;;
51556;SDS011;38766;53.194;5.532;2024-01-30T14:20:05;10.82;;;3.17;;
51556;SDS011;38766;53.194;5.532;2024-01-30T14:22:32;11.93;;;3.45;;
51556;SDS011;38766;53.194;5.532;2024-01-30T14:24:58;9.77;;;3.40;;
51556;SDS011;38766;53.194;5.532;2024-01-30T14:27:24;10.75;;;2.92;;
51556;SDS011;38766;53.194;5.532;2024-01-30T14:29:50;12.45;;;3.28;;
51556;SDS011;38766;53.194;5.532;2024-01-30T14:32:15;7.32;;;2.90;;